sensor_id;sensor_type;location;lat;lon;timestamp;P1;durP1;ratioP1;P2;durP2;ratioP2
67995;SDS011;54772;53.544;49.324;2022-08-16T00:00:12;9.90;;;4.85;;
67995;SDS011;54772;53.544;49.324;2022-08-16T00:02:40;11.75;;;4.70;;
67995;SDS011;54772;53.544;49.324;2022-08-16T00:05:08;12.07;;;4.70;;
67995;SDS011;54772;53.544;49.324;2022-08-16T00:07:35;12.65;;;4.95;;
67995;SDS011;54772;53.544;49.324;2022-08-16T00:10:04;11.52;;;4.37;;
67995;SDS011;54772;53.544;49.324;2022-08-16T00:12:31;7.57;;;4.28;;
67995;SDS011;54772;53.544;49.324;2022-08-16T00:14:59;8.55;;;4.32;;
67995;SDS011;54772;53.544;49.324;2022-08-16T00:17:32;6.68;;;4.10;;
67995;SDS011;54772;53.544;49.324;2022-08-16T00:19:59;8.63;;;3.97;;
67995;SDS011;54772;53.544;49.324;2022-08-16T00:22:25;11.23;;;3.97;;
67995;SDS011;54772;53.544;49.324;2022-08-16T00:24:52;8.63;;;4.20;;
67995;SDS011;54772;53.544;49.324;2022-08-16T00:27:19;9.05;;;4.37;;
67995;SDS011;54772;53.544;49.324;2022-08-16T00:29:47;7.40;;;3.90;;
67995;SDS011;54772;53.544;49.324;2022-08-16T00:32:14;10.15;;;4.10;;
67995;SDS011;54772;53.544;49.324;2022-08-16T00:34:41;9.82;;;3.90;;
67995;SDS011;54772;53.544;49.324;2022-08-16T00:37:08;9.23;;;4.30;;
67995;SDS011;54772;53.544;49.324;2022-08-16T00:39:34;9.25;;;4.07;;
67995;SDS011;54772;53.544;49.324;2022-08-16T00:42:01;8.35;;;4.45;;
67995;SDS011;54772;53.544;49.324;2022-08-16T00:44:28;8.52;;;3.80;;
67995;SDS011;54772;53.544;49.324;2022-08-16T00:46:56;8.68;;;3.80;;
67995;SDS011;54772;53.544;49.324;2022-08-16T00:49:33;10.48;;;3.75;;
67995;SDS011;54772;53.544;49.324;2022-08-16T00:52:00;8.95;;;3.87;;
67995;SDS011;54772;53.544;49.324;2022-08-16T00:54:28;8.98;;;3.37;;
67995;SDS011;54772;53.544;49.324;2022-08-16T00:56:57;7.03;;;3.35;;
67995;SDS011;54772;53.544;49.324;2022-08-16T00:59:25;5.78;;;3.50;;
67995;SDS011;54772;53.544;49.324;2022-08-16T01:01:53;6.22;;;3.50;;
67995;SDS011;54772;53.544;49.324;2022-08-16T01:04:21;5.28;;;3.20;;
67995;SDS011;54772;53.544;49.324;2022-08-16T01:06:50;7.37;;;3.37;;
67995;SDS011;54772;53.544;49.324;2022-08-16T01:09:17;5.65;;;3.60;;
67995;SDS011;54772;53.544;49.324;2022-08-16T01:11:44;7.47;;;3.53;;
67995;SDS011;54772;53.544;49.324;2022-08-16T01:14:17;4.72;;;3.08;;
67995;SDS011;54772;53.544;49.324;2022-08-16T01:16:53;11.50;;;3.83;;
67995;SDS011;54772;53.544;49.324;2022-08-16T01:19:23;7.95;;;4.47;;
67995;SDS011;54772;53.544;49.324;2022-08-16T01:24:51;10.70;;;3.78;;
67995;SDS011;54772;53.544;49.324;2022-08-16T01:28:05;8.05;;;3.70;;
67995;SDS011;54772;53.544;49.324;2022-08-16T01:30:13;10.40;;;3.80;;
67995;SDS011;54772;53.544;49.324;2022-08-16T01:32:49;11.15;;;4.70;;
67995;SDS011;54772;53.544;49.324;2022-08-16T01:37:49;13.32;;;4.07;;
67995;SDS011;54772;53.544;49.324;2022-08-16T01:40:17;10.82;;;3.95;;
67995;SDS011;54772;53.544;49.324;2022-08-16T01:42:46;9.98;;;4.12;;
67995;SDS011;54772;53.544;49.324;2022-08-16T01:45:14;11.70;;;3.95;;
67995;SDS011;54772;53.544;49.324;2022-08-16T01:47:42;10.38;;;5.28;;
67995;SDS011;54772;53.544;49.324;2022-08-16T01:50:11;10.40;;;4.32;;
67995;SDS011;54772;53.544;49.324;2022-08-16T01:52:38;10.07;;;4.30;;
67995;SDS011;54772;53.544;49.324;2022-08-16T01:55:05;8.00;;;4.25;;
67995;SDS011;54772;53.544;49.324;2022-08-16T01:57:33;8.13;;;4.30;;
67995;SDS011;54772;53.544;49.324;2022-08-16T02:00:01;8.80;;;3.83;;
67995;SDS011;54772;53.544;49.324;2022-08-16T02:02:30;7.90;;;4.05;;
67995;SDS011;54772;53.544;49.324;2022-08-16T02:04:57;9.27;;;4.43;;
67995;SDS011;54772;53.544;49.324;2022-08-16T02:07:24;10.98;;;4.12;;
67995;SDS011;54772;53.544;49.324;2022-08-16T02:09:51;8.32;;;4.37;;
67995;SDS011;54772;53.544;49.324;2022-08-16T02:12:18;12.37;;;4.35;;
67995;SDS011;54772;53.544;49.324;2022-08-16T02:14:45;14.57;;;4.37;;
67995;SDS011;54772;53.544;49.324;2022-08-16T02:17:11;9.93;;;4.37;;
67995;SDS011;54772;53.544;49.324;2022-08-16T02:19:39;11.12;;;4.55;;
67995;SDS011;54772;53.544;49.324;2022-08-16T02:22:07;8.35;;;4.40;;
67995;SDS011;54772;53.544;49.324;2022-08-16T02:24:37;9.88;;;4.03;;
67995;SDS011;54772;53.544;49.324;2022-08-16T02:27:04;13.38;;;4.10;;
67995;SDS011;54772;53.544;49.324;2022-08-16T02:29:31;8.32;;;4.43;;
67995;SDS011;54772;53.544;49.324;2022-08-16T02:31:58;12.88;;;4.20;;
67995;SDS011;54772;53.544;49.324;2022-08-16T02:34:25;9.10;;;4.15;;
67995;SDS011;54772;53.544;49.324;2022-08-16T02:36:52;15.77;;;4.15;;
67995;SDS011;54772;53.544;49.324;2022-08-16T02:39:18;14.13;;;5.03;;
67995;SDS011;54772;53.544;49.324;2022-08-16T02:41:46;9.82;;;4.00;;
67995;SDS011;54772;53.544;49.324;2022-08-16T02:44:14;12.63;;;4.60;;
67995;SDS011;54772;53.544;49.324;2022-08-16T02:46:41;9.15;;;4.20;;
67995;SDS011;54772;53.544;49.324;2022-08-16T02:49:08;13.55;;;4.90;;
67995;SDS011;54772;53.544;49.324;2022-08-16T02:51:36;10.25;;;4.20;;
67995;SDS011;54772;53.544;49.324;2022-08-16T02:54:04;8.23;;;4.37;;
67995;SDS011;54772;53.544;49.324;2022-08-16T02:56:32;12.75;;;4.87;;
67995;SDS011;54772;53.544;49.324;2022-08-16T02:58:58;11.52;;;5.12;;
67995;SDS011;54772;53.544;49.324;2022-08-16T03:01:27;9.80;;;4.97;;
67995;SDS011;54772;53.544;49.324;2022-08-16T03:03:55;10.57;;;5.28;;
67995;SDS011;54772;53.544;49.324;2022-08-16T03:06:24;13.30;;;5.22;;
67995;SDS011;54772;53.544;49.324;2022-08-16T03:08:51;13.45;;;5.00;;
67995;SDS011;54772;53.544;49.324;2022-08-16T03:11:18;12.05;;;4.90;;
67995;SDS011;54772;53.544;49.324;2022-08-16T03:13:45;12.43;;;5.15;;
67995;SDS011;54772;53.544;49.324;2022-08-16T03:16:14;14.02;;;4.80;;
67995;SDS011;54772;53.544;49.324;2022-08-16T03:18:41;16.12;;;5.60;;
67995;SDS011;54772;53.544;49.324;2022-08-16T03:21:08;15.60;;;5.90;;
67995;SDS011;54772;53.544;49.324;2022-08-16T03:23:35;17.58;;;6.55;;
67995;SDS011;54772;53.544;49.324;2022-08-16T03:26:01;15.77;;;6.45;;
67995;SDS011;54772;53.544;49.324;2022-08-16T03:28:28;10.63;;;6.03;;
67995;SDS011;54772;53.544;49.324;2022-08-16T03:30:55;16.42;;;6.05;;
67995;SDS011;54772;53.544;49.324;2022-08-16T03:33:21;17.60;;;6.78;;
67995;SDS011;54772;53.544;49.324;2022-08-16T03:35:48;15.90;;;6.78;;
67995;SDS011;54772;53.544;49.324;2022-08-16T03:38:16;14.95;;;5.90;;
67995;SDS011;54772;53.544;49.324;2022-08-16T03:40:43;14.05;;;5.20;;
67995;SDS011;54772;53.544;49.324;2022-08-16T03:43:11;17.67;;;6.10;;
67995;SDS011;54772;53.544;49.324;2022-08-16T03:45:38;11.90;;;6.07;;
67995;SDS011;54772;53.544;49.324;2022-08-16T03:48:05;16.42;;;6.65;;
67995;SDS011;54772;53.544;49.324;2022-08-16T03:50:33;14.63;;;6.03;;
67995;SDS011;54772;53.544;49.324;2022-08-16T03:53:00;13.70;;;5.62;;
67995;SDS011;54772;53.544;49.324;2022-08-16T03:55:27;18.40;;;6.47;;
67995;SDS011;54772;53.544;49.324;2022-08-16T03:57:54;12.50;;;5.78;;
67995;SDS011;54772;53.544;49.324;2022-08-16T04:00:23;13.65;;;5.50;;
67995;SDS011;54772;53.544;49.324;2022-08-16T04:02:52;11.35;;;4.97;;
67995;SDS011;54772;53.544;49.324;2022-08-16T04:05:20;16.30;;;5.82;;
67995;SDS011;54772;53.544;49.324;2022-08-16T04:07:47;13.45;;;6.75;;
67995;SDS011;54772;53.544;49.324;2022-08-16T04:10:14;17.23;;;6.07;;
67995;SDS011;54772;53.544;49.324;2022-08-16T04:12:41;13.07;;;6.03;;
67995;SDS011;54772;53.544;49.324;2022-08-16T04:15:11;11.25;;;6.18;;
67995;SDS011;54772;53.544;49.324;2022-08-16T04:17:39;14.27;;;6.53;;
67995;SDS011;54772;53.544;49.324;2022-08-16T04:20:06;13.50;;;7.20;;
67995;SDS011;54772;53.544;49.324;2022-08-16T04:22:34;13.13;;;5.53;;
67995;SDS011;54772;53.544;49.324;2022-08-16T04:25:01;11.70;;;5.62;;
67995;SDS011;54772;53.544;49.324;2022-08-16T04:27:28;15.13;;;5.65;;
67995;SDS011;54772;53.544;49.324;2022-08-16T04:29:55;15.30;;;5.97;;
67995;SDS011;54772;53.544;49.324;2022-08-16T04:32:22;14.57;;;5.80;;
67995;SDS011;54772;53.544;49.324;2022-08-16T04:34:49;13.23;;;6.07;;
67995;SDS011;54772;53.544;49.324;2022-08-16T04:37:15;9.65;;;5.20;;
67995;SDS011;54772;53.544;49.324;2022-08-16T04:39:42;10.85;;;5.10;;
67995;SDS011;54772;53.544;49.324;2022-08-16T04:42:09;22.17;;;7.18;;
67995;SDS011;54772;53.544;49.324;2022-08-16T04:44:36;13.50;;;5.57;;
67995;SDS011;54772;53.544;49.324;2022-08-16T04:47:03;13.65;;;6.32;;
67995;SDS011;54772;53.544;49.324;2022-08-16T04:49:29;11.60;;;5.32;;
67995;SDS011;54772;53.544;49.324;2022-08-16T04:52:04;15.75;;;6.03;;
67995;SDS011;54772;53.544;49.324;2022-08-16T04:54:31;11.20;;;5.22;;
67995;SDS011;54772;53.544;49.324;2022-08-16T04:56:58;13.70;;;5.97;;
67995;SDS011;54772;53.544;49.324;2022-08-16T04:59:24;13.13;;;5.65;;
67995;SDS011;54772;53.544;49.324;2022-08-16T05:01:51;10.65;;;5.57;;
67995;SDS011;54772;53.544;49.324;2022-08-16T05:04:22;13.00;;;5.32;;
67995;SDS011;54772;53.544;49.324;2022-08-16T05:06:49;14.75;;;5.18;;
67995;SDS011;54772;53.544;49.324;2022-08-16T05:09:16;15.98;;;5.57;;
67995;SDS011;54772;53.544;49.324;2022-08-16T05:11:45;17.15;;;6.70;;
67995;SDS011;54772;53.544;49.324;2022-08-16T05:14:12;12.50;;;5.90;;
67995;SDS011;54772;53.544;49.324;2022-08-16T05:16:38;12.13;;;5.65;;
67995;SDS011;54772;53.544;49.324;2022-08-16T05:19:05;15.73;;;7.62;;
67995;SDS011;54772;53.544;49.324;2022-08-16T05:21:33;12.80;;;6.62;;
67995;SDS011;54772;53.544;49.324;2022-08-16T05:24:01;16.77;;;5.80;;
67995;SDS011;54772;53.544;49.324;2022-08-16T05:26:29;14.52;;;6.15;;
67995;SDS011;54772;53.544;49.324;2022-08-16T05:28:56;18.00;;;7.15;;
67995;SDS011;54772;53.544;49.324;2022-08-16T05:31:24;18.85;;;7.32;;
67995;SDS011;54772;53.544;49.324;2022-08-16T05:33:52;16.75;;;7.43;;
67995;SDS011;54772;53.544;49.324;2022-08-16T05:36:18;16.05;;;7.00;;
67995;SDS011;54772;53.544;49.324;2022-08-16T05:38:46;16.48;;;7.03;;
67995;SDS011;54772;53.544;49.324;2022-08-16T05:41:13;10.48;;;5.72;;
67995;SDS011;54772;53.544;49.324;2022-08-16T05:43:39;9.75;;;5.00;;
67995;SDS011;54772;53.544;49.324;2022-08-16T05:46:06;9.95;;;4.68;;
67995;SDS011;54772;53.544;49.324;2022-08-16T05:48:33;7.50;;;4.07;;
67995;SDS011;54772;53.544;49.324;2022-08-16T05:50:59;8.98;;;4.57;;
67995;SDS011;54772;53.544;49.324;2022-08-16T05:53:26;5.87;;;3.92;;
67995;SDS011;54772;53.544;49.324;2022-08-16T05:55:53;6.87;;;3.35;;
67995;SDS011;54772;53.544;49.324;2022-08-16T05:58:20;7.35;;;3.75;;
67995;SDS011;54772;53.544;49.324;2022-08-16T06:00:46;7.35;;;3.87;;
67995;SDS011;54772;53.544;49.324;2022-08-16T06:03:13;7.30;;;3.47;;
67995;SDS011;54772;53.544;49.324;2022-08-16T06:05:39;7.57;;;4.00;;
67995;SDS011;54772;53.544;49.324;2022-08-16T06:08:06;10.65;;;4.15;;
67995;SDS011;54772;53.544;49.324;2022-08-16T06:10:33;7.40;;;4.00;;
67995;SDS011;54772;53.544;49.324;2022-08-16T06:12:59;8.55;;;4.03;;
67995;SDS011;54772;53.544;49.324;2022-08-16T06:15:27;8.45;;;3.65;;
67995;SDS011;54772;53.544;49.324;2022-08-16T06:17:54;7.18;;;3.80;;
67995;SDS011;54772;53.544;49.324;2022-08-16T06:20:23;7.95;;;3.87;;
67995;SDS011;54772;53.544;49.324;2022-08-16T06:22:52;8.10;;;3.90;;
67995;SDS011;54772;53.544;49.324;2022-08-16T06:25:22;11.82;;;4.32;;
67995;SDS011;54772;53.544;49.324;2022-08-16T06:27:50;7.12;;;4.20;;
67995;SDS011;54772;53.544;49.324;2022-08-16T06:30:17;7.95;;;4.43;;
67995;SDS011;54772;53.544;49.324;2022-08-16T06:32:44;6.47;;;4.25;;
67995;SDS011;54772;53.544;49.324;2022-08-16T06:35:11;7.15;;;4.20;;
67995;SDS011;54772;53.544;49.324;2022-08-16T06:37:40;6.00;;;3.42;;
67995;SDS011;54772;53.544;49.324;2022-08-16T06:40:07;4.78;;;2.92;;
67995;SDS011;54772;53.544;49.324;2022-08-16T06:42:34;8.80;;;4.60;;
67995;SDS011;54772;53.544;49.324;2022-08-16T06:45:02;9.50;;;3.35;;
67995;SDS011;54772;53.544;49.324;2022-08-16T06:47:28;7.47;;;3.35;;
67995;SDS011;54772;53.544;49.324;2022-08-16T06:49:55;6.87;;;3.30;;
67995;SDS011;54772;53.544;49.324;2022-08-16T06:52:22;5.45;;;3.15;;
67995;SDS011;54772;53.544;49.324;2022-08-16T06:54:48;5.65;;;3.20;;
67995;SDS011;54772;53.544;49.324;2022-08-16T06:57:15;6.30;;;3.20;;
67995;SDS011;54772;53.544;49.324;2022-08-16T06:59:44;7.07;;;3.08;;
67995;SDS011;54772;53.544;49.324;2022-08-16T07:02:11;5.75;;;3.15;;
67995;SDS011;54772;53.544;49.324;2022-08-16T07:04:38;4.25;;;3.10;;
67995;SDS011;54772;53.544;49.324;2022-08-16T07:07:06;7.05;;;3.60;;
67995;SDS011;54772;53.544;49.324;2022-08-16T07:09:34;4.57;;;3.10;;
67995;SDS011;54772;53.544;49.324;2022-08-16T07:12:01;7.82;;;2.65;;
67995;SDS011;54772;53.544;49.324;2022-08-16T07:14:27;4.03;;;2.83;;
67995;SDS011;54772;53.544;49.324;2022-08-16T07:16:55;6.82;;;3.25;;
67995;SDS011;54772;53.544;49.324;2022-08-16T07:19:22;4.93;;;2.87;;
67995;SDS011;54772;53.544;49.324;2022-08-16T07:21:49;4.55;;;2.97;;
67995;SDS011;54772;53.544;49.324;2022-08-16T07:24:16;6.55;;;3.12;;
67995;SDS011;54772;53.544;49.324;2022-08-16T07:26:42;6.60;;;2.92;;
67995;SDS011;54772;53.544;49.324;2022-08-16T07:29:09;5.18;;;3.30;;
67995;SDS011;54772;53.544;49.324;2022-08-16T07:31:36;5.57;;;3.00;;
67995;SDS011;54772;53.544;49.324;2022-08-16T07:34:02;5.20;;;2.90;;
67995;SDS011;54772;53.544;49.324;2022-08-16T07:36:29;5.57;;;2.97;;
67995;SDS011;54772;53.544;49.324;2022-08-16T07:38:56;4.80;;;2.97;;
67995;SDS011;54772;53.544;49.324;2022-08-16T07:41:22;6.25;;;3.10;;
67995;SDS011;54772;53.544;49.324;2022-08-16T07:43:49;4.55;;;3.17;;
67995;SDS011;54772;53.544;49.324;2022-08-16T07:46:16;4.30;;;2.87;;
67995;SDS011;54772;53.544;49.324;2022-08-16T07:48:43;5.55;;;3.00;;
67995;SDS011;54772;53.544;49.324;2022-08-16T07:51:09;4.68;;;2.92;;
67995;SDS011;54772;53.544;49.324;2022-08-16T07:53:36;10.73;;;3.20;;
67995;SDS011;54772;53.544;49.324;2022-08-16T07:56:03;8.45;;;2.87;;
67995;SDS011;54772;53.544;49.324;2022-08-16T07:58:30;5.75;;;3.03;;
67995;SDS011;54772;53.544;49.324;2022-08-16T08:00:58;3.87;;;2.92;;
67995;SDS011;54772;53.544;49.324;2022-08-16T08:03:26;7.12;;;3.10;;
67995;SDS011;54772;53.544;49.324;2022-08-16T08:05:52;6.15;;;2.85;;
67995;SDS011;54772;53.544;49.324;2022-08-16T08:08:19;6.97;;;3.37;;
67995;SDS011;54772;53.544;49.324;2022-08-16T08:10:45;6.32;;;2.97;;
67995;SDS011;54772;53.544;49.324;2022-08-16T08:13:12;6.25;;;2.92;;
67995;SDS011;54772;53.544;49.324;2022-08-16T08:15:40;3.70;;;2.12;;
67995;SDS011;54772;53.544;49.324;2022-08-16T08:18:07;4.75;;;2.97;;
67995;SDS011;54772;53.544;49.324;2022-08-16T08:20:33;7.00;;;3.10;;
67995;SDS011;54772;53.544;49.324;2022-08-16T08:23:00;5.35;;;2.97;;
67995;SDS011;54772;53.544;49.324;2022-08-16T08:25:30;4.57;;;2.97;;
67995;SDS011;54772;53.544;49.324;2022-08-16T08:27:57;5.28;;;2.90;;
67995;SDS011;54772;53.544;49.324;2022-08-16T08:30:24;5.40;;;3.42;;
67995;SDS011;54772;53.544;49.324;2022-08-16T08:32:51;7.00;;;3.53;;
67995;SDS011;54772;53.544;49.324;2022-08-16T08:35:19;4.00;;;2.85;;
67995;SDS011;54772;53.544;49.324;2022-08-16T08:37:46;4.93;;;2.78;;
67995;SDS011;54772;53.544;49.324;2022-08-16T08:40:13;5.05;;;2.80;;
67995;SDS011;54772;53.544;49.324;2022-08-16T08:42:40;7.62;;;3.20;;
67995;SDS011;54772;53.544;49.324;2022-08-16T08:45:08;4.30;;;2.90;;
67995;SDS011;54772;53.544;49.324;2022-08-16T08:47:36;3.67;;;2.60;;
67995;SDS011;54772;53.544;49.324;2022-08-16T08:50:04;5.12;;;2.83;;
67995;SDS011;54772;53.544;49.324;2022-08-16T08:52:31;6.37;;;3.45;;
67995;SDS011;54772;53.544;49.324;2022-08-16T08:54:57;4.43;;;2.90;;
67995;SDS011;54772;53.544;49.324;2022-08-16T08:57:26;7.00;;;3.20;;
67995;SDS011;54772;53.544;49.324;2022-08-16T08:59:52;4.53;;;3.05;;
67995;SDS011;54772;53.544;49.324;2022-08-16T09:02:19;10.48;;;3.10;;
67995;SDS011;54772;53.544;49.324;2022-08-16T09:04:45;5.28;;;2.92;;
67995;SDS011;54772;53.544;49.324;2022-08-16T09:07:12;3.62;;;2.62;;
67995;SDS011;54772;53.544;49.324;2022-08-16T09:09:39;4.43;;;2.72;;
67995;SDS011;54772;53.544;49.324;2022-08-16T09:12:06;4.55;;;2.55;;
67995;SDS011;54772;53.544;49.324;2022-08-16T09:14:36;7.03;;;2.90;;
67995;SDS011;54772;53.544;49.324;2022-08-16T09:17:04;5.53;;;3.17;;
67995;SDS011;54772;53.544;49.324;2022-08-16T09:19:32;3.95;;;2.97;;
67995;SDS011;54772;53.544;49.324;2022-08-16T09:22:01;5.35;;;2.97;;
67995;SDS011;54772;53.544;49.324;2022-08-16T09:24:29;5.20;;;2.85;;
67995;SDS011;54772;53.544;49.324;2022-08-16T09:26:56;6.00;;;2.62;;
67995;SDS011;54772;53.544;49.324;2022-08-16T09:29:22;5.93;;;3.22;;
67995;SDS011;54772;53.544;49.324;2022-08-16T09:31:49;3.72;;;2.62;;
67995;SDS011;54772;53.544;49.324;2022-08-16T09:34:16;3.47;;;2.53;;
67995;SDS011;54772;53.544;49.324;2022-08-16T09:36:42;4.60;;;2.70;;
67995;SDS011;54772;53.544;49.324;2022-08-16T09:39:09;4.70;;;3.10;;
67995;SDS011;54772;53.544;49.324;2022-08-16T09:41:36;3.87;;;2.87;;
67995;SDS011;54772;53.544;49.324;2022-08-16T09:44:03;6.37;;;3.20;;
67995;SDS011;54772;53.544;49.324;2022-08-16T09:46:31;7.40;;;3.00;;
67995;SDS011;54772;53.544;49.324;2022-08-16T09:48:57;6.10;;;2.92;;
67995;SDS011;54772;53.544;49.324;2022-08-16T09:51:24;5.05;;;3.47;;
67995;SDS011;54772;53.544;49.324;2022-08-16T09:53:52;3.87;;;2.85;;
67995;SDS011;54772;53.544;49.324;2022-08-16T09:56:29;4.12;;;3.03;;
67995;SDS011;54772;53.544;49.324;2022-08-16T09:58:58;5.78;;;2.92;;
67995;SDS011;54772;53.544;49.324;2022-08-16T10:01:29;5.65;;;3.53;;
67995;SDS011;54772;53.544;49.324;2022-08-16T10:03:57;5.62;;;2.72;;
67995;SDS011;54772;53.544;49.324;2022-08-16T10:06:24;4.22;;;2.87;;
67995;SDS011;54772;53.544;49.324;2022-08-16T10:08:51;5.53;;;3.10;;
67995;SDS011;54772;53.544;49.324;2022-08-16T10:11:18;2.67;;;2.42;;
67995;SDS011;54772;53.544;49.324;2022-08-16T10:14:04;3.15;;;2.45;;
67995;SDS011;54772;53.544;49.324;2022-08-16T10:16:30;3.42;;;2.65;;
67995;SDS011;54772;53.544;49.324;2022-08-16T10:18:57;5.60;;;3.47;;
67995;SDS011;54772;53.544;49.324;2022-08-16T10:21:25;4.53;;;2.90;;
67995;SDS011;54772;53.544;49.324;2022-08-16T10:23:52;4.45;;;2.85;;
67995;SDS011;54772;53.544;49.324;2022-08-16T10:26:22;7.12;;;3.22;;
67995;SDS011;54772;53.544;49.324;2022-08-16T10:28:50;4.68;;;2.90;;
67995;SDS011;54772;53.544;49.324;2022-08-16T10:31:16;5.35;;;2.85;;
67995;SDS011;54772;53.544;49.324;2022-08-16T10:33:43;6.05;;;3.03;;
67995;SDS011;54772;53.544;49.324;2022-08-16T10:36:10;6.40;;;3.60;;
67995;SDS011;54772;53.544;49.324;2022-08-16T10:38:38;3.40;;;2.22;;
67995;SDS011;54772;53.544;49.324;2022-08-16T10:41:05;4.28;;;2.80;;
67995;SDS011;54772;53.544;49.324;2022-08-16T10:43:36;5.03;;;2.80;;
67995;SDS011;54772;53.544;49.324;2022-08-16T10:46:04;5.00;;;3.00;;
67995;SDS011;54772;53.544;49.324;2022-08-16T10:48:36;4.72;;;2.60;;
67995;SDS011;54772;53.544;49.324;2022-08-16T10:51:04;4.78;;;3.12;;
67995;SDS011;54772;53.544;49.324;2022-08-16T10:53:32;4.57;;;2.70;;
67995;SDS011;54772;53.544;49.324;2022-08-16T10:56:06;3.28;;;2.80;;
67995;SDS011;54772;53.544;49.324;2022-08-16T10:58:35;3.72;;;2.70;;
67995;SDS011;54772;53.544;49.324;2022-08-16T11:01:04;5.45;;;3.10;;
67995;SDS011;54772;53.544;49.324;2022-08-16T11:03:33;8.60;;;3.37;;
67995;SDS011;54772;53.544;49.324;2022-08-16T11:06:00;4.15;;;2.65;;
67995;SDS011;54772;53.544;49.324;2022-08-16T11:08:29;6.20;;;2.80;;
67995;SDS011;54772;53.544;49.324;2022-08-16T11:10:56;4.10;;;2.45;;
67995;SDS011;54772;53.544;49.324;2022-08-16T11:13:23;3.37;;;2.62;;
67995;SDS011;54772;53.544;49.324;2022-08-16T11:15:51;7.05;;;2.87;;
67995;SDS011;54772;53.544;49.324;2022-08-16T11:18:19;5.22;;;2.90;;
67995;SDS011;54772;53.544;49.324;2022-08-16T11:20:48;4.12;;;3.03;;
67995;SDS011;54772;53.544;49.324;2022-08-16T11:23:14;5.82;;;2.85;;
67995;SDS011;54772;53.544;49.324;2022-08-16T11:25:41;3.33;;;2.60;;
67995;SDS011;54772;53.544;49.324;2022-08-16T11:28:08;2.78;;;2.33;;
67995;SDS011;54772;53.544;49.324;2022-08-16T11:30:35;4.75;;;2.70;;
67995;SDS011;54772;53.544;49.324;2022-08-16T11:33:02;3.45;;;2.62;;
67995;SDS011;54772;53.544;49.324;2022-08-16T11:35:29;5.80;;;2.70;;
67995;SDS011;54772;53.544;49.324;2022-08-16T11:37:58;5.55;;;2.60;;
67995;SDS011;54772;53.544;49.324;2022-08-16T11:40:27;3.35;;;2.62;;
67995;SDS011;54772;53.544;49.324;2022-08-16T11:42:59;4.37;;;2.70;;
67995;SDS011;54772;53.544;49.324;2022-08-16T11:45:26;4.90;;;2.80;;
67995;SDS011;54772;53.544;49.324;2022-08-16T11:47:52;4.28;;;2.90;;
67995;SDS011;54772;53.544;49.324;2022-08-16T11:50:20;5.40;;;2.72;;
67995;SDS011;54772;53.544;49.324;2022-08-16T11:52:48;6.05;;;2.97;;
67995;SDS011;54772;53.544;49.324;2022-08-16T11:55:15;4.25;;;2.85;;
67995;SDS011;54772;53.544;49.324;2022-08-16T11:57:42;5.45;;;2.97;;
67995;SDS011;54772;53.544;49.324;2022-08-16T12:00:11;6.05;;;2.90;;
67995;SDS011;54772;53.544;49.324;2022-08-16T12:02:38;5.87;;;2.60;;
67995;SDS011;54772;53.544;49.324;2022-08-16T12:05:07;4.40;;;2.90;;
67995;SDS011;54772;53.544;49.324;2022-08-16T12:07:36;4.50;;;2.55;;
67995;SDS011;54772;53.544;49.324;2022-08-16T12:10:07;4.28;;;2.85;;
67995;SDS011;54772;53.544;49.324;2022-08-16T12:12:35;3.20;;;2.40;;
67995;SDS011;54772;53.544;49.324;2022-08-16T12:15:03;4.72;;;2.92;;
67995;SDS011;54772;53.544;49.324;2022-08-16T12:17:30;4.37;;;2.83;;
67995;SDS011;54772;53.544;49.324;2022-08-16T12:19:57;3.08;;;2.55;;
67995;SDS011;54772;53.544;49.324;2022-08-16T12:22:25;3.12;;;2.60;;
67995;SDS011;54772;53.544;49.324;2022-08-16T12:24:52;2.72;;;2.40;;
67995;SDS011;54772;53.544;49.324;2022-08-16T12:27:20;5.40;;;2.72;;
67995;SDS011;54772;53.544;49.324;2022-08-16T12:29:48;5.70;;;2.80;;
67995;SDS011;54772;53.544;49.324;2022-08-16T12:32:18;4.40;;;2.62;;
67995;SDS011;54772;53.544;49.324;2022-08-16T12:34:45;4.00;;;2.60;;
67995;SDS011;54772;53.544;49.324;2022-08-16T12:37:11;3.03;;;2.47;;
67995;SDS011;54772;53.544;49.324;2022-08-16T12:39:39;5.05;;;2.70;;
67995;SDS011;54772;53.544;49.324;2022-08-16T12:42:06;5.28;;;2.90;;
67995;SDS011;54772;53.544;49.324;2022-08-16T12:44:34;4.68;;;2.25;;
67995;SDS011;54772;53.544;49.324;2022-08-16T12:47:02;3.20;;;2.65;;
67995;SDS011;54772;53.544;49.324;2022-08-16T13:02:02;3.62;;;2.10;;
67995;SDS011;54772;53.544;49.324;2022-08-16T13:04:29;3.58;;;2.35;;
67995;SDS011;54772;53.544;49.324;2022-08-16T13:06:57;3.35;;;2.42;;
67995;SDS011;54772;53.544;49.324;2022-08-16T13:09:25;3.47;;;2.60;;
67995;SDS011;54772;53.544;49.324;2022-08-16T13:14:29;3.62;;;2.72;;
67995;SDS011;54772;53.544;49.324;2022-08-16T13:17:05;7.10;;;2.87;;
67995;SDS011;54772;53.544;49.324;2022-08-16T13:19:33;4.68;;;2.58;;
67995;SDS011;54772;53.544;49.324;2022-08-16T13:22:00;3.65;;;2.50;;
67995;SDS011;54772;53.544;49.324;2022-08-16T13:24:27;5.87;;;2.78;;
67995;SDS011;54772;53.544;49.324;2022-08-16T13:26:54;3.65;;;2.30;;
67995;SDS011;54772;53.544;49.324;2022-08-16T13:29:20;5.62;;;2.58;;
67995;SDS011;54772;53.544;49.324;2022-08-16T13:31:47;4.12;;;2.70;;
67995;SDS011;54772;53.544;49.324;2022-08-16T13:34:14;3.17;;;2.37;;
67995;SDS011;54772;53.544;49.324;2022-08-16T13:36:41;4.22;;;2.53;;
67995;SDS011;54772;53.544;49.324;2022-08-16T13:39:08;5.18;;;2.80;;
67995;SDS011;54772;53.544;49.324;2022-08-16T13:41:35;6.03;;;3.08;;
67995;SDS011;54772;53.544;49.324;2022-08-16T13:44:03;3.67;;;2.55;;
67995;SDS011;54772;53.544;49.324;2022-08-16T13:46:30;7.07;;;2.60;;
67995;SDS011;54772;53.544;49.324;2022-08-16T13:48:57;3.65;;;2.60;;
67995;SDS011;54772;53.544;49.324;2022-08-16T13:51:24;3.92;;;2.83;;
67995;SDS011;54772;53.544;49.324;2022-08-16T13:53:53;2.87;;;2.35;;
67995;SDS011;54772;53.544;49.324;2022-08-16T13:56:21;3.42;;;2.28;;
67995;SDS011;54772;53.544;49.324;2022-08-16T13:58:48;3.40;;;2.72;;
67995;SDS011;54772;53.544;49.324;2022-08-16T14:01:16;4.57;;;3.67;;
67995;SDS011;54772;53.544;49.324;2022-08-16T14:03:43;3.95;;;2.95;;
67995;SDS011;54772;53.544;49.324;2022-08-16T14:06:11;5.68;;;2.65;;
67995;SDS011;54772;53.544;49.324;2022-08-16T14:08:38;6.40;;;2.75;;
67995;SDS011;54772;53.544;49.324;2022-08-16T14:11:06;9.23;;;2.95;;
67995;SDS011;54772;53.544;49.324;2022-08-16T14:13:34;4.05;;;2.67;;
67995;SDS011;54772;53.544;49.324;2022-08-16T14:16:01;5.10;;;2.75;;
67995;SDS011;54772;53.544;49.324;2022-08-16T14:18:28;3.90;;;2.67;;
67995;SDS011;54772;53.544;49.324;2022-08-16T14:20:54;3.85;;;2.92;;
67995;SDS011;54772;53.544;49.324;2022-08-16T14:23:22;4.00;;;2.65;;
67995;SDS011;54772;53.544;49.324;2022-08-16T14:25:49;5.50;;;3.12;;
67995;SDS011;54772;53.544;49.324;2022-08-16T14:28:16;8.38;;;2.85;;
67995;SDS011;54772;53.544;49.324;2022-08-16T14:30:43;4.07;;;2.78;;
67995;SDS011;54772;53.544;49.324;2022-08-16T14:33:10;5.93;;;3.03;;
67995;SDS011;54772;53.544;49.324;2022-08-16T14:35:37;6.95;;;3.10;;
67995;SDS011;54772;53.544;49.324;2022-08-16T14:38:03;4.62;;;2.45;;
67995;SDS011;54772;53.544;49.324;2022-08-16T14:40:30;5.47;;;2.95;;
67995;SDS011;54772;53.544;49.324;2022-08-16T14:42:57;8.20;;;2.75;;
67995;SDS011;54772;53.544;49.324;2022-08-16T14:45:25;4.90;;;3.03;;
67995;SDS011;54772;53.544;49.324;2022-08-16T14:47:53;6.75;;;3.55;;
67995;SDS011;54772;53.544;49.324;2022-08-16T14:50:22;6.62;;;2.97;;
67995;SDS011;54772;53.544;49.324;2022-08-16T14:52:54;4.65;;;2.62;;